Time;durP1;ratioP1;P1;durP2;ratioP2;P2;SDS_P1;SDS_P2;PMS_P1;PMS_P2;Temp;Humidity;BMP_temperature;BMP_pressure;BME280_temperature;BME280_humidity;BME280_pressure;Samples;Min_cycle;Max_cycle;Signal;HPM_P1;HPM_P2
2022/09/07 00:00:51;;;;;;;5.20;3.60;;;18.30;99.90;;;;;;5067260;28;20071;-34
2022/09/07 00:03:17;;;;;;;4.80;3.42;;;18.20;99.90;;;;;;5067137;28;20484;-36
2022/09/07 00:05:44;;;;;;;4.07;3.67;;;18.20;99.90;;;;;;5066005;28;20384;-35
2022/09/07 00:08:11;;;;;;;5.38;3.45;;;18.10;99.90;;;;;;5066741;28;20052;-36
2022/09/07 00:10:36;;;;;;;6.30;4.20;;;18.10;99.90;;;;;;5066452;28;20491;-35
2022/09/07 00:13:03;;;;;;;5.80;4.13;;;18.00;99.90;;;;;;5065453;28;20017;-36
2022/09/07 00:15:28;;;;;;;6.00;3.67;;;18.00;99.90;;;;;;5066391;28;20052;-36
2022/09/07 00:17:54;;;;;;;5.88;3.85;;;18.00;99.90;;;;;;5066409;28;20059;-36
2022/09/07 00:20:19;;;;;;;3.83;3.40;;;18.00;99.90;;;;;;5066454;28;20541;-37
2022/09/07 00:22:45;;;;;;;5.82;4.00;;;18.00;99.90;;;;;;5065219;28;20025;-35
2022/09/07 00:25:11;;;;;;;4.97;3.45;;;18.00;99.90;;;;;;5066484;28;20041;-35
2022/09/07 00:27:36;;;;;;;5.38;3.58;;;18.00;99.90;;;;;;5065386;28;20028;-36
2022/09/07 00:30:03;;;;;;;6.38;3.53;;;18.00;99.90;;;;;;5066051;28;20291;-37
2022/09/07 00:32:29;;;;;;;4.78;3.13;;;18.00;99.90;;;;;;5066060;28;20460;-36
2022/09/07 00:34:54;;;;;;;3.90;2.78;;;18.00;99.90;;;;;;5065281;28;20036;-36
2022/09/07 00:37:20;;;;;;;3.75;2.80;;;18.00;99.90;;;;;;5066419;28;20108;-35
2022/09/07 00:39:45;;;;;;;3.13;2.40;;;18.00;99.90;;;;;;5065305;28;20055;-35
2022/09/07 00:42:11;;;;;;;3.40;2.47;;;18.00;99.90;;;;;;5065928;28;20012;-35
2022/09/07 00:44:42;;;;;;;2.22;2.03;;;18.00;99.90;;;;;;5065714;28;20033;-36
2022/09/07 00:47:32;;;;;;;3.05;1.88;;;18.00;99.90;;;;;;5065173;28;20028;-36
2022/09/07 00:50:04;;;;;;;3.95;2.10;;;17.90;99.90;;;;;;5055977;28;20093;-36
2022/09/07 00:52:31;;;;;;;3.35;1.90;;;17.90;99.90;;;;;;5065919;28;20039;-35
2022/09/07 00:55:01;;;;;;;2.33;1.83;;;17.90;99.90;;;;;;5065081;28;20066;-36
2022/09/07 00:57:27;;;;;;;4.90;1.90;;;17.90;99.90;;;;;;5065938;28;20021;-36
2022/09/07 00:59:54;;;;;;;3.65;1.65;;;17.90;99.90;;;;;;5066207;28;20028;-35
2022/09/07 01:02:20;;;;;;;4.18;1.83;;;17.90;99.90;;;;;;5065844;28;20048;-36
2022/09/07 01:04:47;;;;;;;2.00;1.45;;;17.90;99.90;;;;;;5065349;28;20063;-37
2022/09/07 01:07:13;;;;;;;4.43;1.50;;;17.80;99.90;;;;;;5066274;28;20298;-36
2022/09/07 01:09:39;;;;;;;2.35;1.63;;;17.90;99.90;;;;;;5064466;28;20545;-39
2022/09/07 01:12:05;;;;;;;2.45;1.30;;;17.90;99.90;;;;;;5065588;28;20078;-35
2022/09/07 01:14:35;;;;;;;2.92;1.50;;;17.80;99.90;;;;;;5065895;28;20032;-35
2022/09/07 01:17:07;;;;;;;2.20;1.40;;;17.80;99.90;;;;;;5065460;28;20162;-36
2022/09/07 01:19:39;;;;;;;1.50;1.30;;;17.80;99.90;;;;;;5065379;28;20036;-37
2022/09/07 01:22:26;;;;;;;1.57;1.37;;;17.80;99.90;;;;;;5065913;28;20035;-35
2022/09/07 01:25:26;;;;;;;3.03;1.40;;;17.80;99.90;;;;;;5065032;28;21074;-37
2022/09/07 01:28:19;;;;;;;4.70;1.77;;;17.80;99.90;;;;;;5043894;28;20040;-36
2022/09/07 01:30:55;;;;;;;3.63;1.80;;;17.90;99.90;;;;;;5063051;28;20484;-34
2022/09/07 01:33:39;;;;;;;2.47;1.60;;;17.80;99.90;;;;;;5065758;28;20059;-36
2022/09/07 01:36:25;;;;;;;3.63;1.70;;;17.80;99.90;;;;;;5065495;28;20840;-35
2022/09/07 01:39:01;;;;;;;2.60;1.70;;;17.70;99.90;;;;;;5064788;28;20099;-36
2022/09/07 01:41:41;;;;;;;2.33;1.60;;;17.70;99.90;;;;;;5064790;28;20039;-35
2022/09/07 01:44:31;;;;;;;3.22;1.67;;;17.80;99.90;;;;;;5064604;28;20028;-37
2022/09/07 01:47:03;;;;;;;2.72;1.80;;;17.80;99.90;;;;;;5054634;28;20048;-35
2022/09/07 01:49:44;;;;;;;2.70;1.85;;;17.80;99.90;;;;;;5064410;28;20115;-36
2022/09/07 01:52:30;;;;;;;2.03;1.50;;;17.90;99.90;;;;;;5054197;28;20097;-35
2022/09/07 01:55:12;;;;;;;2.00;1.50;;;17.90;99.90;;;;;;5064394;28;20044;-36
2022/09/07 01:57:44;;;;;;;2.05;1.38;;;17.90;99.90;;;;;;5063835;28;20527;-36
2022/09/07 02:00:13;;;;;;;2.17;1.67;;;17.90;99.90;;;;;;5065236;28;20021;-36
2022/09/07 02:02:47;;;;;;;2.22;1.60;;;17.90;99.90;;;;;;5064610;28;20279;-36
2022/09/07 02:05:30;;;;;;;2.03;1.30;;;17.90;99.90;;;;;;5064125;28;20435;-37
2022/09/07 02:08:07;;;;;;;2.45;1.67;;;17.90;99.90;;;;;;5064505;28;20104;-36
2022/09/07 02:10:41;;;;;;;4.03;1.63;;;18.00;99.90;;;;;;5064659;28;20029;-36
2022/09/07 02:13:14;;;;;;;2.38;1.65;;;17.90;99.90;;;;;;5063421;28;20480;-35
2022/09/07 02:15:46;;;;;;;2.50;1.42;;;17.90;99.90;;;;;;5064233;28;20024;-35
2022/09/07 02:18:13;;;;;;;1.77;1.30;;;18.00;99.90;;;;;;5065016;28;20060;-35
2022/09/07 02:20:41;;;;;;;3.05;1.40;;;18.00;99.90;;;;;;5063499;28;20020;-35
2022/09/07 02:23:14;;;;;;;2.38;1.58;;;18.00;99.90;;;;;;5064361;28;20127;-36
2022/09/07 02:25:44;;;;;;;1.70;1.40;;;17.90;99.90;;;;;;5063432;28;20036;-35
2022/09/07 02:28:17;;;;;;;1.45;1.23;;;17.90;99.90;;;;;;5064643;28;20354;-35
2022/09/07 02:30:43;;;;;;;1.35;1.17;;;17.90;99.90;;;;;;5064236;28;20122;-36
2022/09/07 02:33:09;;;;;;;2.58;1.58;;;17.80;99.90;;;;;;5064658;28;20044;-36
2022/09/07 02:35:35;;;;;;;2.90;1.50;;;17.90;99.90;;;;;;5064586;28;20106;-35
2022/09/07 02:38:03;;;;;;;1.92;1.50;;;17.90;99.90;;;;;;5064220;28;20020;-35
2022/09/07 02:40:29;;;;;;;2.83;1.20;;;17.90;99.90;;;;;;5064036;28;20494;-42
2022/09/07 02:43:01;;;;;;;2.25;1.50;;;18.00;99.90;;;;;;5064007;28;20028;-37
2022/09/07 02:45:55;;;;;;;2.13;1.48;;;18.00;99.90;;;;;;5064487;28;20072;-36
2022/09/07 02:48:39;;;;;;;2.05;1.48;;;18.00;99.90;;;;;;5059996;28;20138;-35
2022/09/07 02:51:16;;;;;;;2.03;1.15;;;18.00;99.90;;;;;;5064053;28;20032;-36
2022/09/07 02:54:19;;;;;;;1.67;1.27;;;18.00;99.90;;;;;;5060306;28;20482;-36
2022/09/07 02:56:53;;;;;;;1.40;1.30;;;18.00;99.90;;;;;;5064025;28;20037;-36
2022/09/07 02:59:45;;;;;;;2.13;1.10;;;18.00;99.90;;;;;;5054041;28;20024;-35
2022/09/07 03:02:42;;;;;;;1.58;1.15;;;18.00;99.90;;;;;;5063168;28;20112;-35
2022/09/07 03:05:22;;;;;;;4.00;1.30;;;18.00;99.90;;;;;;5066993;28;20396;-36
2022/09/07 03:08:03;;;;;;;1.92;1.30;;;18.00;99.90;;;;;;5066779;28;20471;-36
2022/09/07 03:10:29;;;;;;;1.67;1.15;;;17.90;99.90;;;;;;5067443;28;20376;-37
2022/09/07 03:12:55;;;;;;;2.03;1.30;;;17.90;99.90;;;;;;5067839;28;20070;-36
2022/09/07 03:15:23;;;;;;;2.50;1.15;;;18.00;99.90;;;;;;5067078;28;20024;-37
2022/09/07 03:17:49;;;;;;;1.65;1.20;;;18.00;99.90;;;;;;5067068;28;20024;-36
2022/09/07 03:20:16;;;;;;;4.25;1.30;;;18.00;99.90;;;;;;5067703;28;20031;-36
2022/09/07 03:22:42;;;;;;;2.13;1.30;;;18.00;99.90;;;;;;5066428;28;20547;-36
2022/09/07 03:25:08;;;;;;;1.73;1.10;;;18.00;99.90;;;;;;5066910;28;20071;-37
2022/09/07 03:27:34;;;;;;;1.25;1.08;;;18.00;99.90;;;;;;5067026;28;20495;-36
2022/09/07 03:30:00;;;;;;;2.38;1.40;;;18.00;99.90;;;;;;5066222;28;20028;-36
2022/09/07 03:32:34;;;;;;;1.75;1.10;;;18.00;99.90;;;;;;5066743;28;20484;-37
2022/09/07 03:35:00;;;;;;;2.50;1.27;;;18.00;99.90;;;;;;5064083;28;20094;-36
2022/09/07 03:37:26;;;;;;;1.67;1.13;;;18.00;99.90;;;;;;5066311;28;20705;-36
2022/09/07 03:39:52;;;;;;;2.15;1.30;;;18.00;99.90;;;;;;5066825;28;20107;-37
2022/09/07 03:42:18;;;;;;;4.03;1.40;;;18.00;99.90;;;;;;5067336;28;20040;-36
2022/09/07 03:44:44;;;;;;;2.50;1.00;;;18.00;99.90;;;;;;5065315;28;20120;-36
2022/09/07 03:47:10;;;;;;;1.27;1.17;;;18.10;99.90;;;;;;5067527;28;20035;-36
2022/09/07 03:49:35;;;;;;;1.33;1.20;;;18.10;99.90;;;;;;5067162;28;20099;-37
2022/09/07 03:52:01;;;;;;;1.45;1.30;;;18.20;99.90;;;;;;5065566;28;20434;-38
2022/09/07 03:54:27;;;;;;;1.80;1.23;;;18.20;99.90;;;;;;5066587;28;20059;-39
2022/09/07 03:56:53;;;;;;;1.73;1.38;;;18.20;99.90;;;;;;5067486;28;20049;-37
2022/09/07 03:59:19;;;;;;;1.35;1.13;;;18.20;99.90;;;;;;5065498;28;20502;-37
2022/09/07 04:01:44;;;;;;;2.38;1.00;;;18.30;99.90;;;;;;5062960;28;20021;-37
2022/09/07 04:04:10;;;;;;;1.58;1.20;;;18.30;99.90;;;;;;5052483;28;20017;-37
2022/09/07 04:06:35;;;;;;;2.42;1.27;;;18.30;99.90;;;;;;5066854;28;20086;-37
2022/09/07 04:09:13;;;;;;;2.00;1.48;;;18.40;99.90;;;;;;5066762;28;20104;-37
2022/09/07 04:11:41;;;;;;;2.42;1.55;;;18.40;99.90;;;;;;5066383;28;20020;-36
2022/09/07 04:14:08;;;;;;;1.73;1.23;;;18.40;99.90;;;;;;5066782;28;20021;-36
2022/09/07 04:16:34;;;;;;;2.20;1.23;;;18.50;99.90;;;;;;5066606;28;20107;-37
2022/09/07 04:19:00;;;;;;;1.65;1.30;;;18.50;99.90;;;;;;5065703;28;20503;-36
2022/09/07 04:21:27;;;;;;;1.75;1.17;;;18.50;99.90;;;;;;5066295;28;20025;-37
2022/09/07 04:23:53;;;;;;;1.55;1.20;;;18.50;99.90;;;;;;5066236;28;20028;-36
2022/09/07 04:26:33;;;;;;;1.33;1.23;;;18.60;99.90;;;;;;5065406;28;20041;-37
2022/09/07 04:29:00;;;;;;;2.50;1.20;;;18.60;99.90;;;;;;5065870;28;20055;-36
2022/09/07 04:31:26;;;;;;;2.92;1.33;;;18.60;99.90;;;;;;5065635;28;20074;-37
2022/09/07 04:33:51;;;;;;;1.60;1.50;;;18.60;99.90;;;;;;5065385;28;20064;-36
2022/09/07 04:36:18;;;;;;;1.48;1.27;;;18.60;99.90;;;;;;5066080;28;20048;-37
2022/09/07 04:38:45;;;;;;;1.75;1.20;;;18.60;99.90;;;;;;5065564;28;20482;-36
2022/09/07 04:41:17;;;;;;;1.50;1.20;;;18.60;99.90;;;;;;5064753;28;20392;-36
2022/09/07 04:43:45;;;;;;;1.73;1.40;;;18.70;99.90;;;;;;5065443;28;20276;-41
2022/09/07 04:46:18;;;;;;;1.90;1.65;;;18.70;99.90;;;;;;5065975;28;20036;-36
2022/09/07 04:48:46;;;;;;;2.97;1.83;;;18.70;99.90;;;;;;5065268;28;20016;-36
2022/09/07 04:51:12;;;;;;;2.25;1.73;;;18.70;99.90;;;;;;5065789;28;20107;-37
2022/09/07 04:53:37;;;;;;;4.95;2.78;;;18.60;99.90;;;;;;5064866;28;20115;-38
2022/09/07 04:56:04;;;;;;;3.30;3.00;;;18.70;99.90;;;;;;5065612;28;20968;-35
2022/09/07 04:58:29;;;;;;;3.72;3.35;;;18.70;99.90;;;;;;5065197;28;20537;-36
2022/09/07 05:01:03;;;;;;;3.50;3.20;;;18.70;99.90;;;;;;5064553;28;20025;-36
2022/09/07 05:03:30;;;;;;;3.85;3.30;;;18.70;99.90;;;;;;5054710;28;20024;-36
2022/09/07 05:05:56;;;;;;;3.85;3.35;;;18.70;99.90;;;;;;5064792;28;20036;-37
2022/09/07 05:08:21;;;;;;;5.18;4.00;;;18.70;99.90;;;;;;5065087;28;20016;-36
2022/09/07 05:10:51;;;;;;;4.25;3.85;;;18.70;99.90;;;;;;5064433;28;20438;-35
2022/09/07 05:13:17;;;;;;;4.30;3.90;;;18.70;99.90;;;;;;5065172;28;20028;-36
2022/09/07 05:15:42;;;;;;;4.05;3.65;;;18.70;99.90;;;;;;5064556;28;20468;-36
2022/09/07 05:18:08;;;;;;;4.93;3.88;;;18.70;99.90;;;;;;5064825;28;20024;-37
2022/09/07 05:20:33;;;;;;;4.47;4.00;;;18.70;99.90;;;;;;5064954;28;20016;-36
2022/09/07 05:22:59;;;;;;;4.82;4.35;;;18.70;99.90;;;;;;5063994;28;20030;-36
2022/09/07 05:25:28;;;;;;;4.35;3.95;;;18.60;99.90;;;;;;5064432;28;20036;-36
2022/09/07 05:27:54;;;;;;;4.55;4.15;;;18.70;99.90;;;;;;5064197;28;20032;-36
2022/09/07 05:30:21;;;;;;;5.18;4.68;;;18.60;99.90;;;;;;5064812;28;20025;-36
2022/09/07 05:32:46;;;;;;;5.57;4.93;;;18.60;99.90;;;;;;5064101;28;20052;-37
2022/09/07 05:35:12;;;;;;;5.78;4.72;;;18.50;99.90;;;;;;5068640;28;20428;-37
2022/09/07 05:37:37;;;;;;;4.47;3.90;;;18.60;99.90;;;;;;5074522;28;20539;-37
2022/09/07 05:40:04;;;;;;;4.05;3.65;;;18.50;99.90;;;;;;5064829;28;20074;-37
2022/09/07 05:42:30;;;;;;;4.25;3.70;;;18.50;99.90;;;;;;5063092;28;20043;-37
2022/09/07 05:44:56;;;;;;;3.50;3.20;;;18.50;99.90;;;;;;5064316;28;20119;-37
2022/09/07 05:47:21;;;;;;;3.13;2.92;;;18.60;99.90;;;;;;5063828;28;20581;-37
2022/09/07 05:49:47;;;;;;;4.72;4.10;;;18.60;99.90;;;;;;5061485;28;20071;-37
2022/09/07 05:52:13;;;;;;;4.35;3.85;;;18.60;99.90;;;;;;5063658;28;20086;-37
2022/09/07 05:54:38;;;;;;;5.22;4.00;;;18.70;99.90;;;;;;5063183;28;20047;-37
2022/09/07 05:57:06;;;;;;;3.35;3.05;;;18.70;99.90;;;;;;5062692;28;20029;-37
2022/09/07 05:59:32;;;;;;;3.75;3.30;;;18.70;99.90;;;;;;5063175;28;20111;-36
2022/09/07 06:01:58;;;;;;;3.70;3.33;;;18.80;99.90;;;;;;5063684;28;20086;-37
2022/09/07 06:04:23;;;;;;;4.53;3.90;;;18.80;99.90;;;;;;5062374;28;20027;-36
2022/09/07 06:06:49;;;;;;;4.80;4.30;;;18.80;99.90;;;;;;5061145;28;20517;-36
2022/09/07 06:09:14;;;;;;;5.57;4.43;;;18.80;99.90;;;;;;5063249;28;20070;-37
2022/09/07 06:11:40;;;;;;;4.45;4.05;;;18.80;99.90;;;;;;5062150;28;20081;-36
2022/09/07 06:14:05;;;;;;;5.18;4.32;;;18.80;99.90;;;;;;5063906;28;20516;-37
2022/09/07 06:16:33;;;;;;;5.85;4.43;;;18.80;99.90;;;;;;5060983;28;20024;-36
2022/09/07 06:18:58;;;;;;;5.18;4.40;;;18.80;99.90;;;;;;5062686;28;20109;-37
2022/09/07 06:21:24;;;;;;;5.03;3.70;;;18.80;99.90;;;;;;5063439;28;20055;-36
2022/09/07 06:23:50;;;;;;;4.05;3.67;;;18.80;99.90;;;;;;5063835;28;20028;-37
2022/09/07 06:26:17;;;;;;;4.00;3.60;;;18.80;99.90;;;;;;5063732;28;20245;-36
2022/09/07 06:28:45;;;;;;;4.85;4.45;;;18.80;99.90;;;;;;5063846;28;20421;-36
2022/09/07 06:31:15;;;;;;;4.68;4.28;;;18.80;99.90;;;;;;5063742;28;20036;-36
2022/09/07 06:33:43;;;;;;;4.35;3.95;;;18.80;99.90;;;;;;5063107;28;20040;-36
2022/09/07 06:36:11;;;;;;;5.53;4.25;;;18.80;99.90;;;;;;5063856;28;20143;-37
2022/09/07 06:38:38;;;;;;;4.80;4.15;;;18.80;99.90;;;;;;5064187;28;20101;-37
2022/09/07 06:41:10;;;;;;;5.85;4.90;;;18.80;99.90;;;;;;5066346;28;20392;-37
2022/09/07 06:43:36;;;;;;;5.70;5.20;;;18.80;99.90;;;;;;5067453;28;20017;-40
2022/09/07 06:46:02;;;;;;;4.82;4.38;;;18.80;99.90;;;;;;5066804;28;20083;-37
2022/09/07 06:48:28;;;;;;;7.10;6.40;;;18.70;99.90;;;;;;5067129;28;20025;-37
2022/09/07 06:51:25;;;;;;;6.60;6.00;;;18.70;99.90;;;;;;5067624;28;20538;-37
2022/09/07 06:53:51;;;;;;;6.68;5.63;;;18.70;99.90;;;;;;5047187;28;20033;-38
2022/09/07 06:56:18;;;;;;;6.43;5.80;;;18.70;99.90;;;;;;5065362;28;20036;-37
2022/09/07 06:58:43;;;;;;;5.95;5.00;;;18.70;99.90;;;;;;5067137;28;20405;-37
2022/09/07 07:01:19;;;;;;;5.88;5.35;;;18.70;99.90;;;;;;5066852;28;20023;-37
2022/09/07 07:03:45;;;;;;;6.05;5.43;;;18.80;99.90;;;;;;5047497;28;20045;-36
2022/09/07 07:06:11;;;;;;;5.20;4.70;;;18.80;99.90;;;;;;5061848;28;20135;-39
2022/09/07 07:08:37;;;;;;;8.32;5.78;;;18.80;99.90;;;;;;5065838;28;20128;-38
2022/09/07 07:11:06;;;;;;;8.45;6.63;;;18.90;99.90;;;;;;5066956;28;20025;-37
2022/09/07 07:13:33;;;;;;;6.78;6.07;;;18.90;99.90;;;;;;5067012;28;20016;-43
2022/09/07 07:16:04;;;;;;;12.00;6.38;;;19.00;99.90;;;;;;5066057;28;20135;-36
2022/09/07 07:18:30;;;;;;;8.95;7.97;;;19.00;99.90;;;;;;5066552;28;20139;-36
2022/09/07 07:20:56;;;;;;;8.15;7.22;;;19.10;99.90;;;;;;5066410;28;20039;-36
2022/09/07 07:23:21;;;;;;;7.60;6.90;;;19.10;99.90;;;;;;5067325;28;20504;-37
2022/09/07 07:25:47;;;;;;;8.57;6.72;;;19.10;99.90;;;;;;5066478;28;20041;-38
2022/09/07 07:28:13;;;;;;;8.05;7.25;;;19.20;99.90;;;;;;5066765;28;20157;-38
2022/09/07 07:30:39;;;;;;;7.85;7.05;;;19.20;99.90;;;;;;5066626;28;20089;-37
2022/09/07 07:33:23;;;;;;;8.50;7.70;;;19.20;99.90;;;;;;5067587;28;20021;-36
2022/09/07 07:35:49;;;;;;;8.93;8.10;;;19.30;99.90;;;;;;5066408;28;20025;-36
2022/09/07 07:38:14;;;;;;;12.55;8.57;;;19.30;99.90;;;;;;5066851;28;20031;-39
2022/09/07 07:40:40;;;;;;;7.88;7.07;;;19.40;99.90;;;;;;5066064;28;20032;-37
2022/09/07 07:43:05;;;;;;;6.90;6.20;;;19.40;99.90;;;;;;5065177;28;20079;-37
2022/09/07 07:45:31;;;;;;;7.43;6.70;;;19.40;99.90;;;;;;5065180;28;20114;-37
2022/09/07 07:47:56;;;;;;;9.20;7.93;;;19.40;99.90;;;;;;5066085;28;20047;-36
2022/09/07 07:50:22;;;;;;;9.25;8.35;;;19.40;99.90;;;;;;5065244;28;20112;-37
2022/09/07 07:52:47;;;;;;;7.82;7.13;;;19.40;99.90;;;;;;5065286;28;20036;-36
2022/09/07 07:55:13;;;;;;;7.57;6.80;;;19.40;99.90;;;;;;5066736;28;20063;-39
2022/09/07 07:57:38;;;;;;;8.70;7.68;;;19.40;99.90;;;;;;5065257;28;20144;-37
2022/09/07 08:00:05;;;;;;;8.15;7.35;;;19.40;99.90;;;;;;5065799;28;20089;-37
2022/09/07 08:02:31;;;;;;;10.07;9.07;;;19.40;99.90;;;;;;5065454;28;20031;-36
2022/09/07 08:04:57;;;;;;;14.40;10.48;;;19.40;99.90;;;;;;5065535;28;20049;-36
2022/09/07 08:07:22;;;;;;;11.60;10.38;;;19.40;99.90;;;;;;5065829;28;20019;-36
2022/09/07 08:09:48;;;;;;;11.40;10.13;;;19.40;99.90;;;;;;5065083;28;20034;-36
2022/09/07 08:12:16;;;;;;;11.40;9.25;;;19.50;99.90;;;;;;5065359;28;20024;-36
2022/09/07 08:14:42;;;;;;;13.88;12.48;;;19.50;99.90;;;;;;5065343;28;20029;-37
2022/09/07 08:17:09;;;;;;;12.25;11.05;;;19.60;99.90;;;;;;5066027;28;20036;-37
2022/09/07 08:19:35;;;;;;;12.05;10.93;;;19.60;99.90;;;;;;5065576;28;20376;-37
2022/09/07 08:22:00;;;;;;;15.13;11.98;;;19.70;99.90;;;;;;5062845;28;20506;-37
2022/09/07 08:24:26;;;;;;;14.00;12.60;;;19.80;99.90;;;;;;5064330;28;20027;-38
2022/09/07 08:26:51;;;;;;;11.50;10.40;;;19.80;99.90;;;;;;5065876;28;20056;-36
2022/09/07 08:29:17;;;;;;;14.90;13.18;;;19.80;99.90;;;;;;5065054;28;20774;-37
2022/09/07 08:31:43;;;;;;;11.07;9.98;;;19.80;99.90;;;;;;5064833;28;20035;-37
2022/09/07 08:34:09;;;;;;;12.00;10.82;;;19.80;99.90;;;;;;5065429;28;20028;-38
2022/09/07 08:36:35;;;;;;;12.93;11.30;;;19.80;99.90;;;;;;5066068;28;20067;-37
2022/09/07 08:39:00;;;;;;;13.48;12.18;;;19.90;99.90;;;;;;5063710;28;20069;-37
2022/09/07 08:41:50;;;;;;;15.20;13.20;;;19.90;99.90;;;;;;5063356;28;20102;-36
2022/09/07 08:44:23;;;;;;;13.68;12.27;;;20.00;99.90;;;;;;5064332;28;20031;-37
2022/09/07 08:46:57;;;;;;;11.15;9.73;;;20.10;99.90;;;;;;5063690;28;20421;-37
2022/09/07 08:49:41;;;;;;;11.18;10.02;;;20.20;99.90;;;;;;5064518;28;20084;-36
2022/09/07 08:52:14;;;;;;;13.63;12.23;;;20.30;99.90;;;;;;5064801;28;20024;-36
2022/09/07 08:54:45;;;;;;;11.80;10.70;;;20.30;99.90;;;;;;5064857;28;20510;-38
2022/09/07 08:57:20;;;;;;;12.82;11.20;;;20.50;99.90;;;;;;5065807;28;20021;-36
2022/09/07 08:59:53;;;;;;;12.43;11.13;;;20.60;99.90;;;;;;5064375;28;20079;-36
2022/09/07 09:02:19;;;;;;;12.77;11.45;;;20.70;99.90;;;;;;5064834;28;20108;-36
2022/09/07 09:04:44;;;;;;;12.13;9.65;;;20.80;99.90;;;;;;5064987;28;20100;-38
2022/09/07 09:07:30;;;;;;;10.18;9.27;;;20.80;99.90;;;;;;5064835;28;20017;-39
2022/09/07 09:10:15;;;;;;;10.73;9.63;;;20.90;99.90;;;;;;5065044;28;20716;-36
2022/09/07 09:13:08;;;;;;;12.15;10.95;;;21.00;99.90;;;;;;5064996;28;20036;-37
2022/09/07 09:15:52;;;;;;;10.55;9.45;;;21.10;99.90;;;;;;5063684;28;20036;-38
2022/09/07 09:18:38;;;;;;;10.27;9.27;;;21.20;99.90;;;;;;5045097;28;20116;-39
2022/09/07 09:21:06;;;;;;;11.65;10.55;;;21.20;99.90;;;;;;5061134;28;20039;-36
2022/09/07 09:23:40;;;;;;;12.02;10.45;;;21.20;99.90;;;;;;5065653;28;20025;-38
2022/09/07 09:26:21;;;;;;;9.43;8.52;;;21.20;99.90;;;;;;5064655;28;20033;-36
2022/09/07 09:28:48;;;;;;;11.23;10.13;;;21.20;99.90;;;;;;5044320;28;20100;-37
2022/09/07 09:31:20;;;;;;;11.50;10.40;;;21.20;99.90;;;;;;5061045;28;20107;-36
2022/09/07 09:34:04;;;;;;;10.70;9.68;;;21.10;99.90;;;;;;5044446;28;20633;-36
2022/09/07 09:36:40;;;;;;;11.68;10.02;;;21.10;99.90;;;;;;5060900;28;20487;-37
2022/09/07 09:39:35;;;;;;;11.85;10.75;;;21.10;99.90;;;;;;5064991;28;20024;-38
2022/09/07 09:42:22;;;;;;;12.32;10.77;;;21.10;99.90;;;;;;5064339;28;20024;-38
2022/09/07 09:44:48;;;;;;;12.93;11.43;;;21.10;99.90;;;;;;5064537;28;20064;-37
2022/09/07 09:47:26;;;;;;;11.75;10.63;;;21.20;99.90;;;;;;5064513;28;20021;-38
2022/09/07 09:49:52;;;;;;;10.63;9.52;;;21.20;99.90;;;;;;5064334;28;20458;-38
2022/09/07 09:52:20;;;;;;;9.73;8.82;;;21.20;99.90;;;;;;5064777;28;20041;-37
2022/09/07 09:54:51;;;;;;;10.35;9.27;;;21.30;99.90;;;;;;5064485;28;20044;-38
2022/09/07 09:57:37;;;;;;;8.52;7.72;;;21.30;99.90;;;;;;5064489;28;20120;-37
2022/09/07 10:00:03;;;;;;;11.07;9.98;;;21.30;99.90;;;;;;5064764;28;20111;-37
2022/09/07 10:02:32;;;;;;;9.30;8.23;;;21.40;99.90;;;;;;5064046;28;20044;-37
2022/09/07 10:04:58;;;;;;;9.82;8.93;;;21.40;99.90;;;;;;5064451;28;20045;-38
2022/09/07 10:07:27;;;;;;;11.27;10.18;;;21.40;99.90;;;;;;5064604;28;20082;-37
2022/09/07 10:09:54;;;;;;;11.05;9.90;;;21.40;99.90;;;;;;5063591;28;20040;-38
2022/09/07 10:12:32;;;;;;;9.05;8.25;;;21.40;99.90;;;;;;5065070;28;20103;-36
2022/09/07 10:15:04;;;;;;;8.60;7.75;;;21.30;99.90;;;;;;5068359;28;20028;-38
2022/09/07 10:17:32;;;;;;;11.13;10.10;;;21.40;99.90;;;;;;5067701;28;20117;-38
2022/09/07 10:20:21;;;;;;;12.15;9.73;;;21.50;99.90;;;;;;5068287;28;20059;-37
2022/09/07 10:22:52;;;;;;;10.23;8.93;;;21.50;99.90;;;;;;5061680;28;20119;-36
2022/09/07 10:25:30;;;;;;;8.55;7.75;;;21.50;99.90;;;;;;5067631;28;20036;-38
2022/09/07 10:28:14;;;;;;;7.95;7.15;;;21.60;99.90;;;;;;5068249;28;20039;-36
2022/09/07 10:31:05;;;;;;;10.27;8.77;;;21.80;99.90;;;;;;5047865;28;20021;-39
2022/09/07 10:33:49;;;;;;;8.90;7.97;;;21.90;99.90;;;;;;5065273;28;20028;-38
2022/09/07 10:36:34;;;;;;;8.93;8.02;;;21.90;99.90;;;;;;5067899;28;20131;-38
2022/09/07 10:39:04;;;;;;;8.38;7.57;;;21.90;99.90;;;;;;5067388;28;20092;-37
2022/09/07 10:41:39;;;;;;;8.63;7.70;;;21.90;99.90;;;;;;5067866;28;20060;-37
2022/09/07 10:44:13;;;;;;;8.43;7.57;;;21.90;99.90;;;;;;5067886;28;20505;-36
2022/09/07 10:47:05;;;;;;;6.55;5.95;;;22.00;99.90;;;;;;5067348;28;20428;-37
2022/09/07 10:49:50;;;;;;;6.10;5.60;;;22.10;99.90;;;;;;5068565;28;20434;-37
2022/09/07 10:52:50;;;;;;;8.60;5.82;;;22.20;99.90;;;;;;5067458;28;20024;-37
2022/09/07 10:55:30;;;;;;;6.50;5.47;;;22.40;99.90;;;;;;5056480;28;20048;-38
2022/09/07 10:58:22;;;;;;;4.60;3.85;;;22.50;99.90;;;;;;5067888;28;20028;-36
2022/09/07 11:01:18;;;;;;;5.97;4.40;;;22.70;99.90;;;;;;5066505;28;20044;-37
2022/09/07 11:04:13;;;;;;;3.92;3.60;;;22.80;99.90;;;;;;5067552;28;20115;-38
2022/09/07 11:06:49;;;;;;;4.10;3.70;;;22.90;99.90;;;;;;5066366;28;20480;-37
2022/09/07 11:09:17;;;;;;;4.40;3.80;;;23.00;99.90;;;;;;5068264;28;20055;-36
2022/09/07 11:11:59;;;;;;;3.70;3.40;;;22.90;99.90;;;;;;5067408;28;20036;-38
2022/09/07 11:14:27;;;;;;;2.70;2.50;;;22.90;99.90;;;;;;5066449;28;20428;-37
2022/09/07 11:17:07;;;;;;;3.22;2.60;;;22.90;99.90;;;;;;5067068;28;20051;-36
2022/09/07 11:19:41;;;;;;;4.95;4.45;;;22.90;99.90;;;;;;5067320;28;20051;-36
2022/09/07 11:22:30;;;;;;;4.57;4.03;;;22.90;99.90;;;;;;5066316;28;20078;-37
2022/09/07 11:25:18;;;;;;;7.40;5.63;;;23.00;99.90;;;;;;5065726;28;20036;-37
2022/09/07 11:27:49;;;;;;;4.72;4.20;;;23.00;99.90;;;;;;5046187;28;20031;-36
2022/09/07 11:30:21;;;;;;;3.72;3.42;;;23.00;99.90;;;;;;5063186;28;20023;-36
2022/09/07 11:33:28;;;;;;;5.18;2.70;;;23.00;99.90;;;;;;5066642;28;20154;-36
2022/09/07 11:36:08;;;;;;;3.40;2.92;;;23.00;99.90;;;;;;5042971;28;20429;-38
2022/09/07 11:38:58;;;;;;;4.05;3.58;;;23.00;99.90;;;;;;5065639;28;20554;-37
2022/09/07 11:41:31;;;;;;;4.03;3.22;;;23.10;99.90;;;;;;5066255;28;20021;-37
2022/09/07 11:44:01;;;;;;;3.85;3.55;;;23.10;99.90;;;;;;5066643;28;20032;-36
2022/09/07 11:46:43;;;;;;;4.05;3.10;;;23.10;99.90;;;;;;5063240;28;20056;-37
2022/09/07 11:49:19;;;;;;;5.25;3.20;;;23.10;99.90;;;;;;5065893;28;20044;-37
2022/09/07 11:52:00;;;;;;;3.75;3.22;;;23.30;99.90;;;;;;5063609;28;20962;-38
2022/09/07 11:54:44;;;;;;;3.58;2.50;;;23.40;99.90;;;;;;5066785;28;20041;-37
2022/09/07 11:57:19;;;;;;;3.05;2.47;;;23.50;99.90;;;;;;5066523;28;20060;-36
2022/09/07 12:00:05;;;;;;;2.30;2.10;;;23.60;99.90;;;;;;5065477;28;20025;-38
2022/09/07 12:03:01;;;;;;;4.00;2.60;;;23.60;99.90;;;;;;5055582;28;20040;-37
2022/09/07 12:05:46;;;;;;;3.35;2.67;;;23.70;99.90;;;;;;5066314;28;20095;-37
2022/09/07 12:09:01;;;;;;;3.28;2.65;;;23.70;99.90;;;;;;5066479;28;20093;-36
2022/09/07 12:11:36;;;;;;;3.33;2.35;;;23.80;99.90;;;;;;5041793;28;20047;-37
2022/09/07 12:14:21;;;;;;;4.38;2.40;;;23.80;99.80;;;;;;5066240;28;20400;-36
2022/09/07 12:17:17;;;;;;;2.20;1.92;;;23.90;99.50;;;;;;5065344;28;20036;-37
2022/09/07 12:19:43;;;;;;;1.90;1.52;;;23.90;99.50;;;;;;5046421;28;20489;-37
2022/09/07 12:22:20;;;;;;;2.63;1.85;;;24.10;99.40;;;;;;5064011;28;20052;-37
2022/09/07 12:24:51;;;;;;;2.72;1.70;;;24.30;99.10;;;;;;5064705;28;20029;-35
2022/09/07 12:27:20;;;;;;;2.88;1.90;;;24.30;98.40;;;;;;5066052;28;20028;-36
2022/09/07 12:29:46;;;;;;;3.10;1.50;;;24.40;97.60;;;;;;5066032;28;20029;-35
2022/09/07 12:32:32;;;;;;;3.92;2.22;;;24.40;97.50;;;;;;5065107;28;20032;-37
2022/09/07 12:34:58;;;;;;;3.75;1.60;;;24.40;96.70;;;;;;5045417;28;20116;-38
2022/09/07 12:37:36;;;;;;;3.75;1.67;;;24.30;96.90;;;;;;5060029;28;20103;-38
2022/09/07 12:40:27;;;;;;;4.20;1.63;;;24.30;97.10;;;;;;5045839;28;20530;-37
2022/09/07 12:43:11;;;;;;;3.55;1.60;;;24.30;97.20;;;;;;5063639;28;20477;-37
2022/09/07 12:45:36;;;;;;;2.28;1.20;;;24.30;96.70;;;;;;5064665;28;20040;-37
2022/09/07 12:48:08;;;;;;;1.73;1.30;;;24.40;96.70;;;;;;5065339;28;20376;-36
2022/09/07 12:50:55;;;;;;;2.45;1.30;;;24.40;96.60;;;;;;5065277;28;20036;-36
2022/09/07 12:53:48;;;;;;;3.45;1.52;;;24.60;96.30;;;;;;5064384;28;20361;-36
2022/09/07 12:56:21;;;;;;;3.03;1.50;;;24.70;95.90;;;;;;5065638;28;20673;-37
2022/09/07 12:58:59;;;;;;;3.75;1.95;;;24.90;95.60;;;;;;5063861;28;20067;-37
2022/09/07 13:01:32;;;;;;;1.83;1.20;;;25.00;95.30;;;;;;5065718;28;20052;-43
2022/09/07 13:04:29;;;;;;;2.35;1.02;;;25.00;95.40;;;;;;5065259;28;20102;-36
2022/09/07 13:07:16;;;;;;;3.22;1.20;;;25.00;95.30;;;;;;5064033;28;20579;-37
2022/09/07 13:09:56;;;;;;;3.30;1.48;;;25.00;95.30;;;;;;5054658;28;20029;-37